createdAt,value
2023-11-21T00:01:19.097Z,97296.47
2023-11-21T00:04:21.655Z,97287.97
2023-11-21T00:07:23.865Z,97265.53
2023-11-21T00:10:25.981Z,97288.41
2023-11-21T00:13:28.713Z,97288.19
2023-11-21T00:16:30.821Z,97262.50
2023-11-21T00:19:34.748Z,97279.47
2023-11-21T00:22:37.692Z,97284.31
2023-11-21T00:25:39.898Z,97284.94
2023-11-21T00:28:42.022Z,97290.19
2023-11-21T00:31:46.063Z,97290.34
2023-11-21T00:34:48.590Z,97300.06
2023-11-21T00:37:51.123Z,97262.38
2023-11-21T00:40:54.466Z,97291.25
2023-11-21T00:43:56.543Z,97289.94
2023-11-21T00:46:58.717Z,97281.56
2023-11-21T00:50:00.838Z,97288.44
2023-11-21T00:53:03.754Z,97280.97
2023-11-21T00:56:06.298Z,97288.25
2023-11-21T00:59:08.384Z,97294.06
2023-11-21T01:02:12.025Z,97280.91
2023-11-21T01:05:14.477Z,97280.91
2023-11-21T01:08:16.844Z,97280.53
2023-11-21T01:11:19.123Z,97270.63
2023-11-21T01:14:21.294Z,97271.25
2023-11-21T01:17:24.141Z,97266.84
2023-11-21T01:20:27.723Z,97268.44
2023-11-21T01:23:29.908Z,97266.09
2023-11-21T01:26:31.951Z,97268.16
2023-11-21T01:29:34.046Z,97262.75
2023-11-21T01:32:36.172Z,97244.53
2023-11-21T01:35:39.669Z,97222.53
2023-11-21T01:38:41.776Z,97242.31
2023-11-21T01:41:46.813Z,97236.19
2023-11-21T01:44:49.746Z,97238.00
2023-11-21T01:47:52.743Z,97236.47
2023-11-21T01:50:56.944Z,97223.13
2023-11-21T01:54:00.507Z,97241.34
2023-11-21T01:57:04.474Z,97216.41
2023-11-21T02:00:16.701Z,97240.03
2023-11-21T02:03:19.156Z,97192.69
2023-11-21T02:06:23.709Z,97211.50
2023-11-21T02:09:28.318Z,97195.56
2023-11-21T02:12:30.407Z,97221.22
2023-11-21T02:15:33.077Z,97215.38
2023-11-21T02:18:35.495Z,97207.41
2023-11-21T02:21:41.647Z,97213.00
2023-11-21T02:24:43.956Z,97208.00
2023-11-21T02:27:49.634Z,97194.38
2023-11-21T02:30:57.128Z,97196.13
2023-11-21T02:33:59.296Z,97197.56
2023-11-21T02:37:01.536Z,97199.25
2023-11-21T02:40:07.756Z,97175.31
2023-11-21T02:43:10.400Z,97196.50
2023-11-21T02:46:12.404Z,97188.25
2023-11-21T02:49:15.528Z,97195.72
2023-11-21T02:52:17.985Z,97198.94
2023-11-21T02:55:20.201Z,97180.75
2023-11-21T02:58:22.536Z,97158.56
2023-11-21T03:01:28.722Z,97174.31
2023-11-21T03:04:33.949Z,97177.88
2023-11-21T03:07:36.706Z,97172.31
2023-11-21T03:10:39.204Z,97160.94
2023-11-21T03:13:44.334Z,97165.34
2023-11-21T03:16:46.540Z,97186.50
2023-11-21T03:19:48.605Z,97181.75
2023-11-21T03:22:50.936Z,97183.56
2023-11-21T03:25:53.108Z,97175.13
2023-11-21T03:28:55.302Z,97181.03
2023-11-21T03:31:57.393Z,97173.50
2023-11-21T03:35:00.653Z,97176.00
2023-11-21T03:38:02.943Z,97175.56
2023-11-21T03:41:06.496Z,97183.97
2023-11-21T03:44:08.552Z,97179.50
2023-11-21T03:47:10.630Z,97174.91
2023-11-21T03:50:13.212Z,97172.03
2023-11-21T03:53:15.463Z,97173.41
2023-11-21T03:56:17.505Z,97184.09
2023-11-21T03:59:19.660Z,97189.28
2023-11-21T04:02:21.816Z,97189.16
2023-11-21T04:05:24.878Z,97182.22
2023-11-21T04:08:27.344Z,97191.44
2023-11-21T04:11:31.272Z,97186.94
2023-11-21T04:14:33.289Z,97201.22
2023-11-21T04:17:35.583Z,97197.84
2023-11-21T04:20:37.737Z,97174.31
2023-11-21T04:23:41.274Z,97194.84
2023-11-21T04:26:43.390Z,97202.50
2023-11-21T04:29:45.802Z,97182.69
2023-11-21T04:32:47.952Z,97191.50
2023-11-21T04:35:50.034Z,97191.63
2023-11-21T04:38:52.083Z,97200.38
2023-11-21T04:41:54.145Z,97186.97
2023-11-21T04:44:56.206Z,97198.34
2023-11-21T04:47:58.401Z,97195.34
2023-11-21T04:51:00.404Z,97196.88
2023-11-21T04:54:02.474Z,97194.25
2023-11-21T04:57:06.064Z,97202.84
2023-11-21T05:00:10.167Z,97203.34
2023-11-21T05:03:12.963Z,97174.94
2023-11-21T05:06:15.649Z,97198.84
2023-11-21T05:09:17.888Z,97194.59
2023-11-21T05:12:19.963Z,97177.13
2023-11-21T05:15:22.445Z,97197.81
2023-11-21T05:18:24.803Z,97195.03
2023-11-21T05:21:27.349Z,97161.34
2023-11-21T05:24:30.067Z,97186.00
2023-11-21T05:27:32.219Z,97205.78
2023-11-21T05:30:34.309Z,97206.41
2023-11-21T05:33:36.387Z,97202.13
2023-11-21T05:36:38.431Z,97218.91
2023-11-21T05:39:40.450Z,97219.19
2023-11-21T05:42:42.439Z,97230.50
2023-11-21T05:45:44.575Z,97224.19
2023-11-21T05:48:47.406Z,97230.88
2023-11-21T05:51:49.449Z,97229.09
2023-11-21T05:54:51.438Z,97238.13
2023-11-21T05:57:53.494Z,97228.53
2023-11-21T06:00:55.489Z,97239.59
2023-11-21T06:03:57.606Z,97247.34
2023-11-21T06:06:59.586Z,97241.75
2023-11-21T06:10:03.703Z,97247.16
2023-11-21T06:13:05.683Z,97255.97
2023-11-21T06:16:08.076Z,97264.63
2023-11-21T06:19:10.083Z,97260.25
2023-11-21T06:22:12.058Z,97261.00
2023-11-21T06:25:15.549Z,97264.50
2023-11-21T06:28:19.117Z,97267.50
2023-11-21T06:31:23.172Z,97262.41
2023-11-21T06:34:25.460Z,97235.03
2023-11-21T06:37:31.410Z,97274.09
2023-11-21T06:40:35.115Z,97275.25
2023-11-21T06:43:37.393Z,97278.69
2023-11-21T06:46:43.714Z,97277.91
2023-11-21T06:49:49.280Z,97292.13
2023-11-21T06:52:51.505Z,97298.41
2023-11-21T06:55:53.620Z,97307.81
2023-11-21T06:58:55.805Z,97306.66
2023-11-21T07:01:58.311Z,97310.56
2023-11-21T07:05:00.523Z,97311.44
2023-11-21T07:08:05.949Z,97316.13
2023-11-21T07:11:08.469Z,97309.28
2023-11-21T07:14:10.627Z,97312.72
2023-11-21T07:17:13.352Z,97306.81
2023-11-21T07:20:18.571Z,97282.38
2023-11-21T07:23:20.874Z,97310.31
2023-11-21T07:26:24.024Z,97315.38
2023-11-21T07:29:31.175Z,97320.44
2023-11-21T07:32:33.483Z,97326.72
2023-11-21T07:35:35.615Z,97312.75
2023-11-21T07:38:37.639Z,97311.91
2023-11-21T07:41:46.222Z,97293.09
2023-11-21T07:44:48.262Z,97318.72
2023-11-21T07:47:50.418Z,97314.75
2023-11-21T07:50:52.526Z,97317.69
2023-11-21T07:53:54.853Z,97330.13
2023-11-21T07:56:56.879Z,97325.47
2023-11-21T07:59:58.941Z,97323.22
2023-11-21T08:03:01.213Z,97325.06
2023-11-21T08:06:07.483Z,97323.16
2023-11-21T08:09:10.026Z,97325.59
2023-11-21T08:12:12.296Z,97321.75
2023-11-21T08:15:14.758Z,97322.94
2023-11-21T08:18:18.702Z,97332.72
2023-11-21T08:21:20.800Z,97324.53
2023-11-21T08:24:23.461Z,97323.03
2023-11-21T08:27:25.445Z,97324.78
2023-11-21T08:30:30.732Z,97331.44
2023-11-21T08:33:33.737Z,97336.84
2023-11-21T08:36:36.500Z,97332.97
2023-11-21T08:39:39.107Z,97299.91
2023-11-21T08:42:41.269Z,97324.63
2023-11-21T08:45:43.530Z,97329.59
2023-11-21T08:48:45.566Z,97321.72
2023-11-21T08:51:48.046Z,97323.03
2023-11-21T08:54:57.204Z,97329.06
2023-11-21T08:58:02.113Z,97320.09
2023-11-21T09:01:05.380Z,97330.53
2023-11-21T09:04:07.543Z,97318.47
2023-11-21T09:07:09.626Z,97327.91
2023-11-21T09:10:11.917Z,97339.22
2023-11-21T09:13:14.422Z,97334.25
2023-11-21T09:16:17.544Z,97341.41
2023-11-21T09:19:19.589Z,97346.75
2023-11-21T09:22:21.665Z,97344.06
2023-11-21T09:25:23.973Z,97333.69
2023-11-21T09:28:26.044Z,97342.03
2023-11-21T09:31:29.065Z,97337.34
2023-11-21T09:34:31.265Z,97337.53
2023-11-21T09:37:33.305Z,97335.22
2023-11-21T09:40:35.316Z,97325.25
2023-11-21T09:43:37.756Z,97342.22
2023-11-21T09:46:43.345Z,97330.69
2023-11-21T09:49:49.152Z,97296.63
2023-11-21T09:53:19.468Z,97312.03
2023-11-21T09:56:25.255Z,97313.00
2023-11-21T09:59:32.001Z,97320.47
2023-11-21T10:02:37.701Z,97310.53
2023-11-21T10:05:40.790Z,97311.00
2023-11-21T10:08:50.262Z,97317.28
2023-11-21T10:12:00.770Z,97311.84
2023-11-21T10:15:07.376Z,97309.28
2023-11-21T10:18:10.909Z,97306.53
2023-11-21T10:21:13.038Z,97298.81
2023-11-21T10:24:15.072Z,97297.59
2023-11-21T10:27:17.235Z,97290.63
2023-11-21T10:30:19.804Z,97290.13
2023-11-21T10:33:30.515Z,97281.84
2023-11-21T10:36:32.699Z,97286.66
2023-11-21T10:39:34.701Z,97298.78
2023-11-21T10:42:36.908Z,97298.25
2023-11-21T10:45:39.128Z,97292.03
2023-11-21T10:48:44.305Z,97295.13
2023-11-21T10:51:46.487Z,97297.94
2023-11-21T10:54:49.262Z,97270.13
2023-11-21T10:57:54.786Z,97264.47
2023-11-21T11:00:58.722Z,97295.16
2023-11-21T11:04:03.312Z,97287.13
2023-11-21T11:07:11.038Z,97282.63
2023-11-21T11:10:16.091Z,97284.38
2023-11-21T11:13:18.163Z,97280.41
2023-11-21T11:16:21.217Z,97286.50
2023-11-21T11:19:23.313Z,97274.91
2023-11-21T11:22:45.264Z,97272.34
2023-11-21T11:25:57.657Z,97272.06
2023-11-21T11:29:24.505Z,97270.94
2023-11-21T11:32:37.824Z,97266.84
2023-11-21T11:35:52.347Z,97270.72
2023-11-21T11:38:57.475Z,97275.44
2023-11-21T11:42:02.689Z,97272.31
2023-11-21T11:45:20.824Z,97266.06
2023-11-21T11:48:24.513Z,97260.41
2023-11-21T11:51:27.375Z,97280.84
2023-11-21T11:54:37.910Z,97288.16
2023-11-21T11:57:44.303Z,97261.69
2023-11-21T12:00:49.882Z,97295.25
2023-11-21T12:04:21.584Z,97287.94
2023-11-21T12:07:25.182Z,97287.75
2023-11-21T12:10:29.755Z,97284.97
2023-11-21T12:13:31.893Z,97294.16
2023-11-21T12:16:34.501Z,97299.03
2023-11-21T12:19:36.645Z,97289.25
2023-11-21T12:22:38.795Z,97284.22
2023-11-21T12:25:43.877Z,97290.91
2023-11-21T12:28:56.042Z,97292.78
2023-11-21T12:31:58.278Z,97290.06
2023-11-21T12:35:02.201Z,97296.00
2023-11-21T12:38:06.279Z,97297.31
2023-11-21T12:41:08.403Z,97305.41
2023-11-21T12:44:13.612Z,97300.09
2023-11-21T12:47:19.337Z,97312.09
2023-11-21T12:50:25.144Z,97300.91
2023-11-21T12:53:27.429Z,97299.47
2023-11-21T12:56:29.472Z,97303.38
2023-11-21T12:59:32.969Z,97300.88
2023-11-21T13:02:36.507Z,97295.56
2023-11-21T13:05:40.732Z,97282.47
2023-11-21T13:08:43.105Z,97296.03
2023-11-21T13:11:46.883Z,97268.59
2023-11-21T13:14:48.907Z,97297.84
2023-11-21T13:17:52.354Z,97287.53
2023-11-21T13:21:00.028Z,97298.16
2023-11-21T13:24:02.003Z,97304.97
2023-11-21T13:27:04.435Z,97284.69
2023-11-21T13:30:09.537Z,97287.19
2023-11-21T13:33:20.567Z,97305.59
2023-11-21T13:36:26.989Z,97306.75
2023-11-21T13:39:30.257Z,97298.63
2023-11-21T13:42:33.378Z,97310.38
2023-11-21T13:45:36.710Z,97307.41
2023-11-21T13:48:52.250Z,97310.06
2023-11-21T13:51:56.655Z,97310.19
2023-11-21T13:54:59.481Z,97310.09
2023-11-21T13:58:01.500Z,97307.81
2023-11-21T14:01:07.287Z,97311.00
2023-11-21T14:04:15.283Z,97322.09
2023-11-21T14:07:35.927Z,97326.75
2023-11-21T14:10:51.894Z,97318.44
2023-11-21T14:13:55.122Z,97314.41
2023-11-21T14:16:58.501Z,97314.78
2023-11-21T14:20:00.674Z,97316.97
2023-11-21T14:23:02.849Z,97315.47
2023-11-21T14:26:07.454Z,97317.06
2023-11-21T14:29:12.628Z,97281.94
2023-11-21T14:32:15.907Z,97320.63
2023-11-21T14:35:18.781Z,97326.63
2023-11-21T14:38:20.978Z,97330.19
2023-11-21T14:41:23.083Z,97329.38
2023-11-21T14:44:27.661Z,97338.41
2023-11-21T14:47:29.930Z,97317.66
2023-11-21T14:50:50.922Z,97337.25
2023-11-21T14:53:56.011Z,97322.16
2023-11-21T14:56:58.085Z,97337.19
2023-11-21T15:00:00.164Z,97329.31
2023-11-21T15:03:03.074Z,97311.94
2023-11-21T15:06:28.157Z,97344.91
2023-11-21T15:09:33.347Z,97347.56
2023-11-21T15:12:35.383Z,97316.53
2023-11-21T15:15:38.399Z,97333.69
2023-11-21T15:18:40.382Z,97345.22
2023-11-21T15:21:42.371Z,97351.59
2023-11-21T15:24:46.852Z,97341.44
2023-11-21T15:27:51.256Z,97342.03
2023-11-21T15:30:53.400Z,97347.81
2023-11-21T15:33:55.681Z,97356.59
2023-11-21T15:36:57.794Z,97360.63
2023-11-21T15:39:59.891Z,97360.53
2023-11-21T15:43:04.477Z,97350.72
2023-11-21T15:46:09.427Z,97363.63
2023-11-21T15:49:18.278Z,97337.91
2023-11-21T15:52:20.584Z,97357.44
2023-11-21T15:55:22.632Z,97346.28
2023-11-21T15:58:26.273Z,97365.59
2023-11-21T16:01:28.470Z,97361.72
2023-11-21T16:04:31.134Z,97364.88
2023-11-21T16:07:33.746Z,97360.00
2023-11-21T16:10:37.564Z,97369.53
2023-11-21T16:13:42.285Z,97381.13
2023-11-21T16:16:44.450Z,97382.41
2023-11-21T16:19:48.335Z,97393.78
2023-11-21T16:22:51.182Z,97399.75
2023-11-21T16:25:56.317Z,97399.16
2023-11-21T16:28:58.409Z,97399.19
2023-11-21T16:32:01.728Z,97401.03
2023-11-21T16:35:05.299Z,97407.94
2023-11-21T16:38:07.427Z,97409.16
2023-11-21T16:41:10.838Z,97407.75
2023-11-21T16:44:20.681Z,97409.38
2023-11-21T16:47:24.671Z,97421.69
2023-11-21T16:50:26.843Z,97424.88
2023-11-21T16:53:28.888Z,97430.97
2023-11-21T16:56:31.116Z,97435.63
2023-11-21T16:59:33.340Z,97439.63
2023-11-21T17:05:39.611Z,97443.03
2023-11-21T17:08:43.297Z,97450.03
2023-11-21T17:11:49.881Z,97458.44
2023-11-21T17:14:51.988Z,97451.44
2023-11-21T17:17:57.307Z,97458.91
2023-11-21T17:20:59.500Z,97464.59
2023-11-21T17:24:02.486Z,97465.69
2023-11-21T17:27:06.192Z,97460.88
2023-11-21T17:30:09.123Z,97468.63
2023-11-21T17:33:11.528Z,97441.09
2023-11-21T17:36:15.917Z,97469.34
2023-11-21T17:39:19.385Z,97469.59
2023-11-21T17:42:21.591Z,97431.38
2023-11-21T17:45:23.976Z,97472.31
2023-11-21T17:48:29.193Z,97470.00
2023-11-21T17:51:31.656Z,97469.53
2023-11-21T17:54:33.804Z,97453.97
2023-11-21T17:57:37.309Z,97466.50
2023-11-21T18:00:40.349Z,97468.69
2023-11-21T18:03:42.590Z,97476.28
2023-11-21T18:06:45.904Z,97479.97
2023-11-21T18:09:48.459Z,97486.38
2023-11-21T18:12:50.665Z,97482.81
2023-11-21T18:15:53.168Z,97481.50
2023-11-21T18:18:55.457Z,97489.44
2023-11-21T18:21:57.881Z,97487.03
2023-11-21T18:25:00.326Z,97485.84
2023-11-21T18:28:02.739Z,97493.38
2023-11-21T18:31:08.484Z,97493.59
2023-11-21T18:34:12.424Z,97504.06
2023-11-21T18:37:15.013Z,97492.31
2023-11-21T18:40:17.684Z,97499.66
2023-11-21T18:43:20.136Z,97492.84
2023-11-21T18:46:23.046Z,97498.16
2023-11-21T18:49:25.455Z,97499.09
2023-11-21T18:52:29.704Z,97493.81
2023-11-21T18:55:32.350Z,97494.09
2023-11-21T18:58:37.967Z,97486.88
2023-11-21T19:01:41.466Z,97485.03
2023-11-21T19:04:44.564Z,97497.88
2023-11-21T19:07:47.212Z,97500.75
2023-11-21T19:10:51.152Z,97499.19
2023-11-21T19:13:54.892Z,97503.50
2023-11-21T19:16:58.213Z,97502.91
2023-11-21T19:20:01.311Z,97500.94
2023-11-21T19:23:03.717Z,97512.94
2023-11-21T19:26:06.431Z,97510.31
2023-11-21T19:29:11.449Z,97518.06
2023-11-21T19:32:13.769Z,97521.31
2023-11-21T19:35:16.613Z,97522.13
2023-11-21T19:38:21.224Z,97533.91
2023-11-21T19:41:23.651Z,97541.19
2023-11-21T19:44:26.469Z,97514.84
2023-11-21T19:47:31.821Z,97545.03
2023-11-21T19:50:34.781Z,97537.94
2023-11-21T19:53:40.552Z,97547.47
2023-11-21T19:56:44.232Z,97546.06
2023-11-21T19:59:47.328Z,97554.78
2023-11-21T20:02:51.711Z,97555.59
2023-11-21T20:05:54.478Z,97563.72
2023-11-21T20:08:58.079Z,97566.53
2023-11-21T20:12:00.937Z,97572.81
2023-11-21T20:15:06.121Z,97564.91
2023-11-21T20:18:08.406Z,97554.75
2023-11-21T20:21:11.477Z,97566.31
2023-11-21T20:24:14.689Z,97567.53
2023-11-21T20:27:18.637Z,97573.84
2023-11-21T20:30:21.965Z,97563.69
2023-11-21T20:33:25.363Z,97553.34
2023-11-21T20:36:28.163Z,97573.00
2023-11-21T20:39:30.906Z,97570.75
2023-11-21T20:42:33.609Z,97575.59
2023-11-21T20:45:38.258Z,97562.22
2023-11-21T20:48:41.172Z,97583.06
2023-11-21T20:51:47.192Z,97574.75
2023-11-21T20:54:49.824Z,97588.13
2023-11-21T20:57:54.889Z,97585.47
2023-11-21T21:00:57.753Z,97594.56
2023-11-21T21:04:00.350Z,97596.78
2023-11-21T21:07:02.679Z,97613.59
2023-11-21T21:10:06.538Z,97601.81
2023-11-21T21:13:12.349Z,97559.00
2023-11-21T21:16:15.504Z,97563.88
2023-11-21T21:19:18.584Z,97595.31
2023-11-21T21:22:20.861Z,97604.63
2023-11-21T21:25:23.030Z,97599.91
2023-11-21T21:28:25.247Z,97607.19
2023-11-21T21:31:27.380Z,97604.56
2023-11-21T21:34:29.553Z,97609.03
2023-11-21T21:37:31.592Z,97604.66
2023-11-21T21:40:34.787Z,97617.03
2023-11-21T21:43:37.704Z,97578.69
2023-11-21T21:46:41.284Z,97616.47
2023-11-21T21:49:43.643Z,97579.22
2023-11-21T21:52:45.986Z,97617.00
2023-11-21T21:55:48.181Z,97621.25
2023-11-21T21:58:53.920Z,97622.69
2023-11-21T22:01:56.957Z,97619.47
2023-11-21T22:04:59.194Z,97627.38
2023-11-21T22:08:01.286Z,97629.00
2023-11-21T22:11:03.961Z,97641.38
2023-11-21T22:14:06.281Z,97631.25
2023-11-21T22:17:08.508Z,97634.69
2023-11-21T22:20:12.061Z,97644.41
2023-11-21T22:23:14.301Z,97649.69
2023-11-21T22:26:17.259Z,97648.88
2023-11-21T22:29:19.496Z,97642.41
2023-11-21T22:32:23.187Z,97649.88
2023-11-21T22:35:25.961Z,97650.69
2023-11-21T22:38:28.028Z,97651.72
2023-11-21T22:41:30.171Z,97650.25
2023-11-21T22:44:32.309Z,97644.16
2023-11-21T22:47:36.024Z,97643.72
2023-11-21T22:50:38.262Z,97637.41
2023-11-21T22:53:40.654Z,97610.03
2023-11-21T22:56:44.292Z,97638.38
2023-11-21T22:59:46.612Z,97637.56
2023-11-21T23:02:49.625Z,97637.19
2023-11-21T23:05:54.748Z,97646.94
2023-11-21T23:08:56.817Z,97640.66
2023-11-21T23:11:58.898Z,97649.56
2023-11-21T23:15:00.954Z,97628.69
2023-11-21T23:18:06.215Z,97659.69
2023-11-21T23:21:10.737Z,97648.13
2023-11-21T23:24:19.031Z,97657.69
2023-11-21T23:27:22.941Z,97640.59
2023-11-21T23:30:25.324Z,97645.03
2023-11-21T23:33:31.917Z,97648.88
2023-11-21T23:36:34.136Z,97648.66
2023-11-21T23:39:36.256Z,97637.47
2023-11-21T23:42:38.290Z,97640.50
2023-11-21T23:45:40.373Z,97640.06
2023-11-21T23:48:43.642Z,97649.75
2023-11-21T23:51:45.729Z,97662.41
2023-11-21T23:54:48.586Z,97667.28
2023-11-21T23:57:50.804Z,97677.84
